Time;durP1;ratioP1;P1;durP2;ratioP2;P2;SDS_P1;SDS_P2;PMS_P1;PMS_P2;Temp;Humidity;BMP_temperature;BMP_pressure;BME280_temperature;BME280_humidity;BME280_pressure;Samples;Min_cycle;Max_cycle;Signal;HPM_P1;HPM_P2
2022/01/16 00:00:51;;;;;;;17.60;10.10;;;5.60;77.30;5.60;97052.00;;;;5014681;28;20198;-85
2022/01/16 00:06:20;;;;;;;18.43;10.03;;;6.70;78.10;5.60;97049.00;;;;5014373;28;20224;-85
2022/01/16 00:08:47;;;;;;;18.87;11.10;;;5.70;77.30;5.60;97037.00;;;;5015299;28;20202;-85
2022/01/16 00:11:14;;;;;;;19.30;10.40;;;5.70;77.20;5.70;97031.00;;;;5014902;28;20202;-86
2022/01/16 00:13:41;;;;;;;17.07;9.47;;;5.80;77.30;5.70;97051.00;;;;5014867;28;20635;-85
2022/01/16 00:16:12;;;;;;;17.73;9.80;;;5.70;77.20;5.70;97061.00;;;;5011591;28;20221;-86
2022/01/16 00:18:49;;;;;;;15.80;9.57;;;5.70;77.30;5.70;97050.00;;;;5009450;28;20195;-86
2022/01/16 00:21:39;;;;;;;17.27;9.67;;;5.70;77.40;5.70;97046.00;;;;5016302;28;20197;-85
2022/01/16 00:24:07;;;;;;;18.67;10.10;;;5.80;77.50;5.80;97043.00;;;;5016012;28;20272;-85
2022/01/16 00:26:35;;;;;;;17.67;10.53;;;5.80;77.50;5.80;97061.00;;;;5014601;28;20218;-86
2022/01/16 00:29:04;;;;;;;19.30;10.23;;;5.80;77.40;5.80;97031.00;;;;5015963;28;20272;-86
2022/01/16 00:31:31;;;;;;;16.77;9.60;;;5.80;77.10;5.80;97009.00;;;;5013620;28;20214;-85
2022/01/16 00:33:59;;;;;;;18.17;9.57;;;5.80;77.20;5.80;97029.00;;;;5014353;28;20202;-86
2022/01/16 00:36:26;;;;;;;16.07;9.37;;;5.80;77.20;5.80;97028.00;;;;5014591;28;20229;-86
2022/01/16 00:38:56;;;;;;;18.07;9.10;;;5.80;77.20;5.80;97038.00;;;;5035601;28;20269;-87
2022/01/16 00:41:23;;;;;;;19.87;9.40;;;5.80;77.20;5.80;97012.00;;;;5023534;28;20605;-86
2022/01/16 00:43:53;;;;;;;18.10;9.97;;;5.80;77.20;5.80;97030.00;;;;5015116;28;20245;-86
2022/01/16 00:46:21;;;;;;;17.70;9.50;;;5.80;77.00;5.80;97030.00;;;;5014254;28;20218;-85
2022/01/16 00:48:48;;;;;;;19.77;10.73;;;5.80;76.90;5.80;97039.00;;;;5014330;28;20205;-85
2022/01/16 00:51:17;;;;;;;23.37;10.07;;;5.80;76.60;5.70;97013.00;;;;5013592;28;20679;-86
2022/01/16 00:53:45;;;;;;;21.00;10.70;;;5.80;76.50;5.70;97017.00;;;;5013668;28;20206;-86
2022/01/16 00:56:13;;;;;;;14.87;8.80;;;5.80;76.30;5.60;97006.00;;;;5013706;28;20722;-86
2022/01/16 00:58:40;;;;;;;16.70;9.63;;;5.70;76.20;5.60;97015.00;;;;5014235;28;20198;-86
2022/01/16 01:01:07;;;;;;;16.03;9.40;;;5.70;76.40;5.60;97009.00;;;;5014540;28;20198;-86
2022/01/16 01:03:34;;;;;;;17.17;9.53;;;5.70;76.70;5.60;97018.00;;;;5014231;28;20228;-85
2022/01/16 01:06:02;;;;;;;16.57;9.23;;;5.70;76.60;5.60;97032.00;;;;5014226;28;20217;-85
2022/01/16 01:08:30;;;;;;;15.20;9.53;;;5.70;76.80;5.60;97047.00;;;;5013957;28;20300;-86
2022/01/16 01:10:59;;;;;;;17.13;9.63;;;5.70;76.90;5.60;97065.00;;;;5014163;28;20292;-85
2022/01/16 01:13:33;;;;;;;17.03;9.17;;;5.70;76.90;5.60;97045.00;;;;5013557;28;20255;-86
2022/01/16 01:16:03;;;;;;;18.40;8.93;;;5.70;76.90;5.70;97038.00;;;;5013786;28;20229;-86
2022/01/16 01:18:33;;;;;;;17.90;9.40;;;5.70;76.90;5.70;97027.00;;;;5014070;28;20606;-86
2022/01/16 01:21:02;;;;;;;17.60;9.97;;;5.70;77.00;5.70;96968.00;;;;5014190;28;20210;-86
2022/01/16 01:23:31;;;;;;;16.93;9.30;;;5.70;77.10;5.70;96948.00;;;;5013823;28;20236;-85
2022/01/16 01:25:58;;;;;;;16.47;9.87;;;5.80;77.00;5.70;96933.00;;;;5013837;28;20225;-86
2022/01/16 01:28:25;;;;;;;26.47;11.60;;;5.70;76.90;5.70;96943.00;;;;5012755;28;20201;-86
2022/01/16 01:30:54;;;;;;;19.00;10.53;;;5.70;77.00;5.60;96936.00;;;;5013866;28;20623;-86
2022/01/16 01:33:23;;;;;;;18.27;10.10;;;5.70;76.80;5.60;96960.00;;;;5013219;28;20202;-86
2022/01/16 01:35:50;;;;;;;23.23;11.03;;;5.60;76.70;5.60;96998.00;;;;5013266;28;20229;-86
2022/01/16 01:38:20;;;;;;;16.33;9.93;;;5.70;76.80;5.60;96996.00;;;;5013326;28;20213;-85
2022/01/16 01:40:49;;;;;;;19.93;10.20;;;5.60;76.70;5.50;97003.00;;;;5013630;28;20303;-85
2022/01/16 01:51:42;;;;;;;17.73;9.67;;;5.50;76.60;5.40;97016.00;;;;5013180;28;20206;-85
2022/01/16 01:54:10;;;;;;;14.27;8.87;;;5.50;76.70;5.40;97007.00;;;;5013068;28;20197;-86
2022/01/16 01:56:39;;;;;;;15.13;8.83;;;5.50;76.60;5.40;97014.00;;;;5012907;28;20221;-86
2022/01/16 01:59:07;;;;;;;13.50;8.23;;;5.40;76.50;5.40;97022.00;;;;5012888;28;20190;-86
2022/01/16 02:01:35;;;;;;;14.17;8.47;;;5.50;76.40;5.30;97023.00;;;;5012964;28;20210;-86
2022/01/16 02:04:02;;;;;;;14.13;8.27;;;5.40;76.40;5.30;97023.00;;;;5012328;28;20604;-86
2022/01/16 02:06:32;;;;;;;14.27;7.90;;;5.40;76.40;5.30;97036.00;;;;5012206;28;20218;-86
2022/01/16 02:09:03;;;;;;;13.50;8.53;;;5.40;76.50;5.30;97035.00;;;;5012105;28;20205;-86
2022/01/16 02:11:32;;;;;;;14.67;8.13;;;5.50;76.70;5.30;97044.00;;;;5011525;28;20648;-86
2022/01/16 02:14:08;;;;;;;17.37;8.77;;;5.40;76.80;5.30;97043.00;;;;5007700;28;20699;-86
2022/01/16 02:28:04;;;;;;;15.87;9.07;;;5.40;77.10;5.40;97016.00;;;;5011851;28;20189;-85
2022/01/16 02:31:02;;;;;;;14.43;8.70;;;5.40;77.00;5.40;96997.00;;;;5012285;28;20194;-86
2022/01/16 02:36:27;;;;;;;16.93;9.80;;;5.50;77.00;5.40;96993.00;;;;4999293;28;20279;-86
2022/01/16 02:39:01;;;;;;;14.63;8.83;;;5.50;77.00;5.40;96981.00;;;;5012359;28;20621;-86
2022/01/16 02:41:28;;;;;;;14.67;8.30;;;5.50;77.10;5.40;96985.00;;;;5011687;28;20225;-86
2022/01/16 02:43:56;;;;;;;14.27;8.50;;;5.50;77.10;5.40;96978.00;;;;5011620;28;20221;-86
2022/01/16 02:46:36;;;;;;;13.43;8.47;;;5.50;77.00;5.40;96990.00;;;;5007640;28;20642;-86
2022/01/16 02:49:04;;;;;;;14.57;8.03;;;5.50;77.00;5.40;96988.00;;;;5012498;28;20280;-86
2022/01/16 02:51:31;;;;;;;10.70;6.87;;;5.50;76.90;5.40;96983.00;;;;5012519;28;20270;-86
2022/01/16 02:54:00;;;;;;;12.90;7.27;;;5.50;76.80;5.40;96972.00;;;;5012355;28;20707;-86
2022/01/16 02:56:27;;;;;;;14.30;7.93;;;5.40;76.80;5.40;96974.00;;;;5012334;28;20213;-87
2022/01/16 02:58:54;;;;;;;11.97;7.17;;;5.50;77.00;5.40;96972.00;;;;5011408;28;20566;-86
2022/01/16 03:01:21;;;;;;;16.60;8.03;;;5.50;77.10;5.50;96966.00;;;;5011907;28;20201;-86
2022/01/16 03:03:48;;;;;;;14.10;7.47;;;5.50;77.00;5.50;96960.00;;;;5012253;28;20232;-86
2022/01/16 03:06:15;;;;;;;14.50;8.17;;;5.50;76.90;5.50;96956.00;;;;5012261;28;20226;-86
2022/01/16 03:08:42;;;;;;;15.27;8.83;;;5.50;76.90;5.50;96963.00;;;;5012177;28;20579;-86
2022/01/16 03:11:20;;;;;;;13.77;7.83;;;5.50;77.00;5.50;96967.00;;;;5011988;28;20205;-86
2022/01/16 03:13:49;;;;;;;15.17;8.53;;;5.50;77.00;5.50;96961.00;;;;5012118;28;20202;-86
2022/01/16 03:16:17;;;;;;;16.63;9.03;;;5.50;76.90;5.50;96961.00;;;;5011594;28;20238;-86
2022/01/16 03:24:15;;;;;;;15.03;8.40;;;5.60;77.10;5.50;96943.00;;;;5012069;28;20738;-86
2022/01/16 03:26:43;;;;;;;15.30;9.20;;;5.60;77.00;5.50;96952.00;;;;5011647;28;20724;-86
2022/01/16 03:29:11;;;;;;;15.47;8.50;;;5.60;77.00;5.50;96937.00;;;;5012365;28;20202;-86
2022/01/16 03:31:38;;;;;;;15.37;9.30;;;5.60;77.00;5.50;96941.00;;;;5011833;28;20280;-87
2022/01/16 03:34:05;;;;;;;13.73;8.60;;;5.60;76.90;5.50;96949.00;;;;5011518;28;20202;-86
2022/01/16 03:36:33;;;;;;;15.67;8.60;;;5.60;77.10;5.50;96940.00;;;;5011154;28;20394;-86
2022/01/16 03:39:00;;;;;;;12.23;7.73;;;5.60;77.20;5.50;96935.00;;;;5011880;28;20665;-86
2022/01/16 03:41:28;;;;;;;12.33;7.50;;;5.60;77.00;5.50;96922.00;;;;5011783;28;20200;-86
2022/01/16 03:44:01;;;;;;;11.53;6.90;;;5.60;77.00;5.60;96916.00;;;;5011479;28;20228;-86
2022/01/16 03:46:34;;;;;;;10.60;7.00;;;5.60;76.90;5.60;96925.00;;;;5017538;28;20611;-86
2022/01/16 03:49:04;;;;;;;12.20;7.33;;;5.60;77.00;5.60;96926.00;;;;5017453;28;20193;-86
2022/01/16 03:51:31;;;;;;;12.73;7.13;;;5.60;77.00;5.60;96918.00;;;;5012227;28;20202;-86
2022/01/16 03:53:58;;;;;;;12.87;7.83;;;5.60;76.90;5.60;96918.00;;;;5010786;28;20595;-86
2022/01/16 03:56:26;;;;;;;12.17;7.37;;;5.60;77.50;5.60;96917.00;;;;5014438;28;20224;-86
2022/01/16 03:58:53;;;;;;;11.37;7.50;;;5.60;76.90;5.60;96923.00;;;;5015589;28;20265;-86
2022/01/16 04:01:24;;;;;;;13.80;7.70;;;5.60;77.00;5.60;96916.00;;;;5015306;28;20678;-86
2022/01/16 04:03:51;;;;;;;11.80;7.87;;;5.70;77.00;5.60;96928.00;;;;5015677;28;20226;-86
2022/01/16 04:06:19;;;;;;;13.80;8.10;;;5.70;77.00;5.70;96925.00;;;;5015110;28;20245;-86
2022/01/16 04:08:46;;;;;;;14.20;8.10;;;5.70;77.00;5.60;96921.00;;;;5014665;28;20664;-86
2022/01/16 04:11:14;;;;;;;14.43;8.30;;;5.70;77.00;5.70;96931.00;;;;5014707;28;20630;-86
2022/01/16 04:13:48;;;;;;;13.70;7.97;;;5.70;76.90;5.70;96930.00;;;;5015011;28;20595;-86
2022/01/16 04:16:16;;;;;;;15.93;8.40;;;5.70;76.90;5.70;96932.00;;;;5013467;28;20229;-86
2022/01/16 04:18:49;;;;;;;14.70;8.43;;;5.70;76.90;5.70;96946.00;;;;5015636;28;20590;-86
2022/01/16 04:21:16;;;;;;;15.77;8.67;;;5.70;76.80;5.70;96946.00;;;;5017017;28;20194;-86
2022/01/16 04:23:43;;;;;;;16.93;9.10;;;6.50;77.30;5.70;96927.00;;;;5016407;28;20586;-86
2022/01/16 04:26:10;;;;;;;15.13;8.80;;;5.70;76.90;5.70;96937.00;;;;5013707;28;20214;-86
2022/01/16 04:28:37;;;;;;;18.30;9.70;;;7.00;77.80;5.70;96926.00;;;;5013405;28;20194;-86
2022/01/16 04:31:04;;;;;;;19.00;9.17;;;5.70;77.00;5.70;96942.00;;;;5008657;28;20277;-86
2022/01/16 04:33:31;;;;;;;15.47;8.97;;;5.70;76.90;5.70;96925.00;;;;5012216;28;20194;-86
2022/01/16 04:36:00;;;;;;;17.43;9.50;;;5.70;77.00;5.70;96939.00;;;;5012232;28;20595;-86
2022/01/16 04:38:27;;;;;;;14.63;8.87;;;5.70;77.00;5.70;96934.00;;;;5014050;28;20201;-86
2022/01/16 04:43:48;;;;;;;17.40;9.70;;;5.70;77.10;5.70;96943.00;;;;5014561;28;20281;-86
2022/01/16 04:46:15;;;;;;;14.13;8.33;;;5.70;77.20;5.70;96947.00;;;;5013821;28;20222;-86
2022/01/16 04:48:42;;;;;;;16.53;9.47;;;5.70;77.20;5.70;96956.00;;;;5014367;28;20210;-86
2022/01/16 04:51:12;;;;;;;16.47;9.47;;;5.80;77.30;5.70;96950.00;;;;5014171;28;20200;-86
2022/01/16 04:53:40;;;;;;;14.23;9.00;;;5.80;77.10;5.70;96947.00;;;;5014235;28;20198;-86
2022/01/16 04:56:08;;;;;;;16.33;9.50;;;5.80;77.00;5.70;96944.00;;;;5013912;28;20214;-87
2022/01/16 04:58:37;;;;;;;17.70;10.30;;;5.80;77.00;5.70;96946.00;;;;5014495;28;20293;-86
2022/01/16 05:01:05;;;;;;;17.03;9.43;;;5.70;76.90;5.60;96940.00;;;;5012552;28;20190;-86
2022/01/16 05:03:33;;;;;;;15.27;9.07;;;5.60;76.90;5.60;96946.00;;;;5013995;28;20571;-86
2022/01/16 05:06:01;;;;;;;15.47;8.37;;;5.70;77.00;5.60;96933.00;;;;5012027;28;20222;-86
2022/01/16 05:08:30;;;;;;;15.07;8.83;;;5.70;77.00;5.60;96941.00;;;;5013636;28;20660;-86
2022/01/16 05:10:58;;;;;;;16.87;9.53;;;5.90;77.10;5.60;96937.00;;;;5013277;28;20213;-86
2022/01/16 05:16:34;;;;;;;17.90;9.63;;;5.70;77.00;5.60;96941.00;;;;5013963;28;20285;-86
2022/01/16 05:16:36;;;;;;;18.30;10.57;;;5.70;77.00;5.60;96954.00;;;;5013001;28;20678;-86
2022/01/16 05:19:05;;;;;;;16.20;9.43;;;5.90;77.10;5.60;96942.00;;;;5013803;28;20204;-86
2022/01/16 05:21:32;;;;;;;20.27;10.20;;;5.80;76.90;5.60;96946.00;;;;5013390;28;20194;-86
2022/01/16 05:24:03;;;;;;;16.63;9.47;;;5.70;76.70;5.60;96940.00;;;;5013552;28;20198;-86
2022/01/16 05:26:31;;;;;;;19.27;9.63;;;5.70;76.80;5.60;96936.00;;;;5012943;28;20230;-86
2022/01/16 05:28:58;;;;;;;17.30;9.83;;;5.70;76.80;5.60;96934.00;;;;5013568;28;20194;-86
2022/01/16 05:31:25;;;;;;;17.53;9.90;;;5.70;77.60;5.60;96939.00;;;;5013578;28;20194;-86
2022/01/16 05:33:52;;;;;;;17.20;9.77;;;5.70;76.80;5.60;96948.00;;;;5013674;28;20194;-86
2022/01/16 05:36:21;;;;;;;16.63;10.23;;;5.70;77.00;5.60;96946.00;;;;5013266;28;20228;-86
2022/01/16 05:38:49;;;;;;;18.43;10.53;;;5.70;77.00;5.60;96947.00;;;;5013083;28;20198;-86
2022/01/16 05:41:18;;;;;;;19.23;9.77;;;5.70;77.00;5.60;96947.00;;;;5012986;28;20217;-86
2022/01/16 05:43:45;;;;;;;16.10;9.90;;;5.70;77.00;5.60;96946.00;;;;5012078;28;20217;-86
2022/01/16 05:46:12;;;;;;;20.40;11.00;;;5.70;77.00;5.70;96950.00;;;;5012208;28;20230;-86
2022/01/16 05:48:39;;;;;;;16.47;10.53;;;5.80;77.20;5.70;96955.00;;;;5012533;28;20273;-86
2022/01/16 05:51:08;;;;;;;19.33;11.53;;;5.80;77.20;5.70;96956.00;;;;5013214;28;20208;-86
2022/01/16 05:53:35;;;;;;;19.20;10.93;;;5.80;77.00;5.70;96942.00;;;;5012597;28;20200;-86
2022/01/16 05:56:02;;;;;;;17.30;10.67;;;5.80;76.90;5.70;96947.00;;;;5012733;28;20218;-86
2022/01/16 05:58:30;;;;;;;17.53;10.93;;;5.80;77.00;5.70;96940.00;;;;5012774;28;20577;-86
2022/01/16 06:00:57;;;;;;;20.27;11.67;;;6.90;77.80;5.70;96948.00;;;;5012866;28;20194;-86
2022/01/16 06:03:25;;;;;;;18.73;12.03;;;5.80;77.00;5.70;96952.00;;;;5012887;28;20192;-86
2022/01/16 06:05:52;;;;;;;18.97;11.20;;;5.80;76.90;5.70;96956.00;;;;5012838;28;20234;-86
2022/01/16 06:08:19;;;;;;;19.53;12.37;;;5.80;76.90;5.70;96969.00;;;;5012713;28;20198;-86
2022/01/16 06:10:46;;;;;;;18.70;11.23;;;5.80;76.80;5.70;96962.00;;;;5012459;28;20204;-86
2022/01/16 06:13:13;;;;;;;19.23;11.60;;;5.90;77.60;5.70;96976.00;;;;5013240;28;20557;-86
2022/01/16 06:15:42;;;;;;;19.90;12.03;;;5.90;77.00;5.80;96976.00;;;;5012620;28;20238;-86
2022/01/16 06:18:09;;;;;;;20.13;12.23;;;5.90;77.00;5.80;96983.00;;;;5011732;28;20664;-86
2022/01/16 06:20:36;;;;;;;21.33;13.13;;;5.90;77.00;5.80;96975.00;;;;5012408;28;20198;-86
2022/01/16 06:23:04;;;;;;;19.13;12.30;;;5.90;77.00;5.80;96980.00;;;;5016695;28;20198;-86
2022/01/16 06:25:31;;;;;;;22.57;13.07;;;5.90;77.00;5.80;96989.00;;;;5012390;28;20244;-86
2022/01/16 06:27:58;;;;;;;18.87;12.07;;;5.90;76.90;5.90;96982.00;;;;5012747;28;20198;-86
2022/01/16 06:30:26;;;;;;;20.27;11.90;;;5.90;76.80;5.90;96987.00;;;;5011330;28;20578;-86
2022/01/16 06:32:54;;;;;;;19.90;12.47;;;5.90;76.80;5.90;96988.00;;;;5012304;28;20201;-86
2022/01/16 06:35:21;;;;;;;22.30;13.57;;;5.90;76.90;5.80;96988.00;;;;5011646;28;20596;-86
2022/01/16 06:37:48;;;;;;;19.83;12.23;;;6.00;77.00;5.90;96982.00;;;;5012013;28;20202;-86
2022/01/16 06:40:16;;;;;;;23.53;13.50;;;6.00;76.90;5.80;96989.00;;;;5012873;28;20568;-86
2022/01/16 06:42:43;;;;;;;22.87;13.77;;;6.00;76.80;5.80;96978.00;;;;5012719;28;20197;-86
2022/01/16 06:45:12;;;;;;;21.23;12.97;;;6.00;76.80;5.80;96981.00;;;;5012580;28;20272;-86
2022/01/16 06:47:40;;;;;;;22.70;13.23;;;6.00;76.80;5.80;96977.00;;;;5012052;28;20190;-87
2022/01/16 06:50:10;;;;;;;22.10;13.13;;;6.00;76.90;5.80;96982.00;;;;5012564;28;20198;-86
2022/01/16 06:52:37;;;;;;;24.03;13.90;;;6.00;76.80;5.90;96993.00;;;;5017017;28;20206;-86
2022/01/16 06:55:06;;;;;;;24.10;14.13;;;6.00;76.70;5.90;96990.00;;;;5035395;28;20813;-86
2022/01/16 06:57:33;;;;;;;23.97;13.87;;;6.00;76.80;5.90;96997.00;;;;5016341;28;20241;-86
2022/01/16 07:00:00;;;;;;;23.53;13.40;;;6.00;76.80;5.90;96991.00;;;;5016329;28;20750;-86
2022/01/16 07:02:27;;;;;;;23.80;13.30;;;6.00;76.90;5.90;96996.00;;;;5012719;28;20204;-86
2022/01/16 07:04:55;;;;;;;21.00;13.60;;;6.00;76.90;5.90;97003.00;;;;5011763;28;20221;-86
2022/01/16 07:07:24;;;;;;;23.77;14.73;;;6.00;76.80;5.90;97013.00;;;;5012502;28;20213;-86
2022/01/16 07:09:51;;;;;;;24.13;14.50;;;6.00;76.90;5.90;97018.00;;;;5012596;28;20206;-86
2022/01/16 07:12:18;;;;;;;23.00;13.70;;;6.00;76.70;5.90;97013.00;;;;5011599;28;20594;-86
2022/01/16 07:14:45;;;;;;;22.37;14.13;;;6.00;76.70;5.90;97010.00;;;;5011596;28;20214;-86
2022/01/16 07:17:12;;;;;;;25.73;14.70;;;6.00;76.80;5.90;97013.00;;;;5011493;28;20198;-86
2022/01/16 07:19:39;;;;;;;24.80;14.30;;;6.00;76.80;5.90;97020.00;;;;5011747;28;20200;-86
2022/01/16 07:22:06;;;;;;;25.80;15.70;;;6.10;76.90;6.00;97018.00;;;;5011498;28;20200;-86
2022/01/16 07:24:35;;;;;;;26.23;16.17;;;6.00;76.90;6.00;97012.00;;;;5012089;28;20586;-86
2022/01/16 07:27:02;;;;;;;24.70;14.50;;;6.10;76.80;6.00;97025.00;;;;5011702;28;20201;-86
2022/01/16 07:29:29;;;;;;;23.93;14.60;;;6.10;76.80;6.00;97027.00;;;;5012094;28;20209;-86
2022/01/16 07:31:57;;;;;;;23.33;14.17;;;6.10;76.80;6.00;97027.00;;;;5015410;28;20204;-86
2022/01/16 07:34:24;;;;;;;24.10;14.47;;;6.10;76.70;6.00;97038.00;;;;5015856;28;20281;-86
2022/01/16 07:36:51;;;;;;;25.00;14.90;;;6.10;76.70;6.00;97028.00;;;;5015461;28;20590;-86
2022/01/16 07:39:18;;;;;;;27.20;15.90;;;6.20;76.90;6.00;97031.00;;;;5015848;28;20201;-86
2022/01/16 07:41:47;;;;;;;28.73;16.60;;;6.10;76.80;6.10;97030.00;;;;5016024;28;20567;-86
2022/01/16 07:44:14;;;;;;;27.47;15.77;;;6.10;76.80;6.10;97038.00;;;;5015871;28;20581;-86
2022/01/16 07:46:41;;;;;;;32.50;18.20;;;6.10;76.80;6.10;97038.00;;;;5015315;28;20221;-86
2022/01/16 07:49:08;;;;;;;27.40;16.60;;;6.20;76.80;6.10;97046.00;;;;5015627;28;20586;-86
2022/01/16 07:51:36;;;;;;;25.23;15.50;;;6.20;76.70;6.10;97050.00;;;;5014997;28;20190;-86
2022/01/16 07:54:03;;;;;;;27.97;15.37;;;6.20;76.70;6.10;97046.00;;;;5022494;28;20281;-86
2022/01/16 07:56:30;;;;;;;23.27;15.03;;;6.20;76.70;6.10;97055.00;;;;5017874;28;20332;-86
2022/01/16 07:58:58;;;;;;;25.90;16.30;;;6.20;76.70;6.10;97064.00;;;;5015665;28;20209;-86
2022/01/16 08:01:25;;;;;;;27.03;16.20;;;6.20;76.80;6.20;97082.00;;;;5015649;28;20236;-86
2022/01/16 08:03:52;;;;;;;26.97;16.40;;;6.20;76.80;6.20;97077.00;;;;5015529;28;20194;-86
2022/01/16 08:06:19;;;;;;;25.90;15.10;;;6.30;76.70;6.20;97084.00;;;;5015496;28;20224;-86
2022/01/16 08:08:46;;;;;;;28.23;17.23;;;6.20;76.70;6.20;97084.00;;;;5015205;28;20190;-86
2022/01/16 08:11:13;;;;;;;25.70;16.00;;;6.30;76.70;6.20;97082.00;;;;5019580;28;20202;-86
2022/01/16 08:13:40;;;;;;;24.27;15.00;;;6.30;76.60;6.20;97077.00;;;;5015085;28;20191;-86
2022/01/16 08:16:09;;;;;;;27.00;16.53;;;7.00;77.00;6.20;97076.00;;;;5015256;28;20233;-86
2022/01/16 08:18:36;;;;;;;23.63;15.00;;;6.30;76.50;6.20;97074.00;;;;5014815;28;20566;-86
2022/01/16 08:21:04;;;;;;;23.17;14.47;;;6.40;76.40;6.30;97067.00;;;;5015248;28;20198;-86
2022/01/16 08:23:31;;;;;;;23.73;14.97;;;6.30;76.30;6.30;97072.00;;;;5014927;28;20190;-86
2022/01/16 08:25:58;;;;;;;21.83;14.87;;;6.30;76.40;6.30;97081.00;;;;5014133;28;20309;-86
2022/01/16 08:28:25;;;;;;;24.10;15.03;;;6.40;76.40;6.40;97076.00;;;;5014371;28;20221;-86
2022/01/16 08:30:52;;;;;;;23.10;13.97;;;6.40;76.40;6.40;97074.00;;;;5012602;28;20201;-86
2022/01/16 08:33:20;;;;;;;23.77;13.97;;;6.40;76.40;6.40;97070.00;;;;5006786;28;20262;-86
2022/01/16 08:35:48;;;;;;;24.47;15.43;;;7.70;77.00;6.50;97078.00;;;;5014718;28;20222;-86
2022/01/16 08:38:15;;;;;;;23.20;15.20;;;6.50;76.20;6.50;97074.00;;;;5014374;28;20575;-86
2022/01/16 08:40:42;;;;;;;22.93;14.90;;;6.50;75.90;6.40;97086.00;;;;5014123;28;20200;-86
2022/01/16 08:43:10;;;;;;;24.10;15.87;;;6.50;75.70;6.50;97080.00;;;;4995889;28;20198;-84
2022/01/16 08:45:40;;;;;;;22.93;14.60;;;6.50;75.60;6.60;97076.00;;;;5023372;28;20597;-85
2022/01/16 08:48:09;;;;;;;20.87;14.10;;;6.50;75.80;6.60;97075.00;;;;5018098;28;20205;-84
2022/01/16 08:50:39;;;;;;;23.00;14.60;;;6.60;75.70;6.70;97076.00;;;;5014516;28;20202;-88
2022/01/16 08:53:07;;;;;;;23.23;14.93;;;6.60;75.60;6.80;97079.00;;;;5014145;28;20552;-86
2022/01/16 08:55:37;;;;;;;24.03;14.93;;;6.60;75.60;6.80;97080.00;;;;5014620;28;20218;-86
2022/01/16 08:58:04;;;;;;;23.80;15.10;;;6.70;76.00;6.90;97087.00;;;;5013985;28;20288;-85
2022/01/16 09:00:32;;;;;;;25.60;15.20;;;6.80;75.80;6.90;97092.00;;;;5014449;28;20191;-86
2022/01/16 09:03:00;;;;;;;22.60;14.40;;;6.80;75.80;6.90;97084.00;;;;5014518;28;20198;-85
2022/01/16 09:05:28;;;;;;;23.17;15.13;;;6.80;75.70;7.00;97087.00;;;;5014118;28;20704;-85
2022/01/16 09:07:57;;;;;;;24.37;15.53;;;6.80;75.60;7.00;97084.00;;;;5014442;28;20205;-86
2022/01/16 09:10:25;;;;;;;23.77;14.83;;;6.90;75.50;7.10;97080.00;;;;5014360;28;20664;-86
2022/01/16 09:12:53;;;;;;;22.33;14.50;;;6.90;75.50;7.10;97080.00;;;;5015173;28;20209;-83
2022/01/16 09:15:21;;;;;;;21.00;14.47;;;7.10;75.20;7.10;97081.00;;;;5013268;28;20222;-84
2022/01/16 09:17:48;;;;;;;22.17;14.30;;;7.10;75.30;7.10;97077.00;;;;5013678;28;20202;-84
2022/01/16 09:20:15;;;;;;;22.77;14.70;;;7.00;75.10;7.20;97089.00;;;;5013152;28;20201;-84
2022/01/16 09:22:45;;;;;;;23.77;14.87;;;7.00;75.20;7.20;97090.00;;;;5012558;28;20559;-84
2022/01/16 09:25:14;;;;;;;20.13;14.13;;;7.10;75.30;7.30;97091.00;;;;5015769;28;20214;-84
2022/01/16 09:27:42;;;;;;;24.50;15.27;;;7.10;75.30;7.40;97081.00;;;;5013598;28;20204;-84
2022/01/16 09:30:12;;;;;;;22.37;15.30;;;7.10;75.30;7.40;97088.00;;;;5013894;28;20553;-84
2022/01/16 09:32:39;;;;;;;22.27;15.77;;;7.20;75.40;7.50;97093.00;;;;5013103;28;20702;-85
2022/01/16 09:35:10;;;;;;;23.83;15.80;;;7.20;75.60;7.60;97097.00;;;;5012745;28;20221;-84
2022/01/16 09:37:37;;;;;;;24.53;15.63;;;7.30;75.50;7.60;97091.00;;;;5013320;28;20221;-84
2022/01/16 09:40:08;;;;;;;22.47;16.03;;;7.30;75.30;7.60;97095.00;;;;5013382;28;20190;-84
2022/01/16 09:42:37;;;;;;;22.40;14.53;;;7.30;75.00;7.60;97107.00;;;;5012919;28;20194;-84
2022/01/16 09:45:07;;;;;;;27.30;16.13;;;7.40;75.10;7.60;97115.00;;;;5012948;28;20231;-84
2022/01/16 09:47:34;;;;;;;23.27;15.60;;;7.40;75.20;7.70;97116.00;;;;5013060;28;20190;-84
2022/01/16 09:50:04;;;;;;;25.60;15.47;;;7.50;75.20;7.70;97115.00;;;;5013479;28;20190;-84
2022/01/16 09:52:33;;;;;;;21.10;14.60;;;7.50;75.10;7.80;97117.00;;;;5012562;28;20208;-85
2022/01/16 09:55:00;;;;;;;25.83;16.07;;;7.50;75.40;7.80;97116.00;;;;4993775;28;20219;-84
2022/01/16 09:57:27;;;;;;;24.43;15.77;;;7.60;75.50;7.90;97110.00;;;;5001678;28;20242;-84
2022/01/16 09:59:55;;;;;;;27.57;16.70;;;7.70;75.30;8.00;97106.00;;;;5012279;28;20198;-84
2022/01/16 10:02:23;;;;;;;23.70;15.70;;;7.70;75.40;8.00;97107.00;;;;5011263;28;20192;-84
2022/01/16 10:04:50;;;;;;;21.83;14.80;;;7.80;75.20;8.10;97104.00;;;;5012934;28;20220;-84
2022/01/16 10:07:19;;;;;;;23.40;15.10;;;7.90;75.30;8.20;97105.00;;;;5013860;28;20233;-84
2022/01/16 10:10:07;;;;;;;25.03;16.40;;;8.00;75.80;8.30;97105.00;;;;5025469;28;20197;-84
2022/01/16 10:12:35;;;;;;;23.60;15.27;;;8.20;76.10;8.50;97103.00;;;;5026054;28;20253;-84
2022/01/16 10:15:21;;;;;;;23.53;15.27;;;8.40;76.10;8.60;97105.00;;;;5020990;28;20221;-84
2022/01/16 10:17:51;;;;;;;19.33;13.27;;;8.60;75.10;8.60;97108.00;;;;5012783;28;20205;-83
2022/01/16 10:20:18;;;;;;;22.13;14.60;;;8.80;75.60;8.60;97093.00;;;;5012255;28;20244;-84
2022/01/16 10:22:49;;;;;;;19.40;13.83;;;8.90;75.00;8.70;97104.00;;;;5012835;28;20217;-84
2022/01/16 10:25:34;;;;;;;22.23;14.00;;;9.10;74.60;8.80;97095.00;;;;5012467;28;20692;-84
2022/01/16 10:28:05;;;;;;;23.23;15.53;;;9.20;74.40;8.90;97094.00;;;;5012584;28;20675;-84
2022/01/16 10:30:43;;;;;;;22.57;15.67;;;9.40;73.10;9.00;97100.00;;;;5011333;28;20202;-84
2022/01/16 10:33:15;;;;;;;22.60;15.37;;;9.50;73.40;9.10;97105.00;;;;5012082;28;20285;-84
2022/01/16 10:35:47;;;;;;;22.23;14.47;;;9.60;73.70;9.20;97096.00;;;;5012397;28;20214;-83
2022/01/16 10:38:19;;;;;;;23.80;14.77;;;9.70;73.70;9.30;97103.00;;;;5014596;28;20276;-83
2022/01/16 10:40:50;;;;;;;22.40;15.13;;;9.90;73.10;9.40;97104.00;;;;5013558;28;20201;-84
2022/01/16 10:43:18;;;;;;;21.70;14.53;;;9.90;73.20;9.50;97105.00;;;;5013421;28;20193;-84
2022/01/16 10:45:47;;;;;;;20.23;14.03;;;10.10;72.60;9.60;97106.00;;;;5012992;28;20592;-84
2022/01/16 10:48:15;;;;;;;18.73;14.13;;;10.10;71.80;9.60;97095.00;;;;5013841;28;20202;-84
2022/01/16 10:50:44;;;;;;;20.97;13.90;;;10.10;71.50;9.60;97092.00;;;;5013191;28;20727;-84
2022/01/16 10:53:15;;;;;;;19.90;13.33;;;10.10;71.00;9.70;97094.00;;;;5013800;28;20217;-84
2022/01/16 10:55:47;;;;;;;21.83;14.67;;;10.10;70.70;9.70;97089.00;;;;5013144;28;20221;-84
2022/01/16 10:58:17;;;;;;;19.77;13.53;;;10.00;70.60;9.70;97098.00;;;;5013448;28;20202;-84
2022/01/16 11:00:52;;;;;;;19.70;13.23;;;10.00;70.60;9.70;97107.00;;;;5012712;28;20209;-84
2022/01/16 11:03:20;;;;;;;21.83;15.27;;;9.90;70.40;9.70;97097.00;;;;5012497;28;20194;-84
2022/01/16 11:05:49;;;;;;;21.27;13.63;;;9.90;70.60;9.70;97101.00;;;;5014950;28;20244;-84
2022/01/16 11:08:19;;;;;;;19.80;13.90;;;9.80;70.00;9.60;97110.00;;;;5015979;28;20260;-84
2022/01/16 11:10:49;;;;;;;20.00;14.23;;;9.70;69.70;9.50;97098.00;;;;5016650;28;20740;-84
2022/01/16 11:13:18;;;;;;;20.70;14.80;;;9.70;69.40;9.30;97106.00;;;;5018032;28;20204;-84
2022/01/16 11:15:49;;;;;;;22.83;14.80;;;9.50;68.80;9.20;97102.00;;;;5016012;28;20245;-84
2022/01/16 11:18:19;;;;;;;20.03;13.60;;;9.40;69.30;9.10;97099.00;;;;5016982;28;20198;-84
2022/01/16 11:20:56;;;;;;;21.50;14.43;;;9.30;69.60;9.00;97097.00;;;;5016881;28;20295;-84
2022/01/16 11:23:32;;;;;;;22.97;14.50;;;9.10;69.50;8.90;97091.00;;;;5016562;28;20202;-84
2022/01/16 11:26:02;;;;;;;18.83;13.13;;;9.10;69.60;8.90;97090.00;;;;5016092;28;20288;-84
2022/01/16 11:28:30;;;;;;;20.77;13.63;;;9.00;69.40;8.80;97095.00;;;;5016462;28;20194;-84
2022/01/16 11:31:02;;;;;;;22.33;14.50;;;9.00;69.90;8.70;97084.00;;;;5021579;28;20548;-84
2022/01/16 11:33:33;;;;;;;20.53;14.03;;;8.90;70.20;8.70;97089.00;;;;5036438;28;20188;-83
2022/01/16 11:36:05;;;;;;;22.17;14.47;;;8.70;70.50;8.60;97086.00;;;;5031841;28;20226;-84
2022/01/16 11:38:36;;;;;;;22.90;14.70;;;8.80;70.40;8.60;97089.00;;;;5017069;28;20187;-84